Time;durP1;ratioP1;P1;durP2;ratioP2;P2;SDS_P1;SDS_P2;PMS_P1;PMS_P2;Temp;Humidity;BMP_temperature;BMP_pressure;BME280_temperature;BME280_humidity;BME280_pressure;Samples;Min_cycle;Max_cycle;Signal;HPM_P1;HPM_P2
2022/12/24 00:00:23;;;;;;;18.77;3.65;;;10.50;99.90;;;;;;5051717;28;20167;-44
2022/12/24 00:02:49;;;;;;;23.52;4.30;;;10.50;99.90;;;;;;5051200;28;20218;-46
2022/12/24 00:05:14;;;;;;;17.65;3.47;;;10.40;99.90;;;;;;5051358;28;20503;-47
2022/12/24 00:07:40;;;;;;;11.40;3.17;;;10.50;99.90;;;;;;5051258;28;20205;-46
2022/12/24 00:10:07;;;;;;;15.05;3.45;;;10.40;99.90;;;;;;5049859;28;20167;-47
2022/12/24 00:12:33;;;;;;;17.08;4.20;;;10.50;99.90;;;;;;5051448;28;20174;-47
2022/12/24 00:14:59;;;;;;;14.45;3.05;;;10.40;99.90;;;;;;5051186;28;20167;-44
2022/12/24 00:17:24;;;;;;;23.35;4.05;;;10.40;99.90;;;;;;5051298;28;20202;-44
2022/12/24 00:19:50;;;;;;;21.08;4.35;;;10.40;99.90;;;;;;5051593;28;20167;-45
2022/12/24 00:22:15;;;;;;;15.13;3.85;;;10.40;99.90;;;;;;5051111;28;20173;-44
2022/12/24 00:24:41;;;;;;;23.25;3.63;;;10.40;99.90;;;;;;5050916;28;20167;-45
2022/12/24 00:27:06;;;;;;;23.90;4.07;;;10.40;99.90;;;;;;5051118;28;20173;-47
2022/12/24 00:29:32;;;;;;;27.40;4.18;;;10.40;99.90;;;;;;5051117;28;20167;-51
2022/12/24 00:31:58;;;;;;;21.52;3.78;;;10.40;99.90;;;;;;5050938;28;20212;-49
2022/12/24 00:34:24;;;;;;;20.85;4.03;;;10.40;99.90;;;;;;5051473;28;20170;-52
2022/12/24 00:36:49;;;;;;;22.95;3.80;;;12.70;99.90;;;;;;5051456;28;20257;-45
2022/12/24 00:39:15;;;;;;;23.42;4.45;;;10.40;99.90;;;;;;5050792;28;20207;-44
2022/12/24 00:41:41;;;;;;;19.65;4.72;;;10.40;99.90;;;;;;5051104;28;20634;-46
2022/12/24 00:44:09;;;;;;;27.80;3.88;;;10.40;99.90;;;;;;5055041;28;20163;-47
2022/12/24 00:46:35;;;;;;;25.70;4.55;;;10.40;99.90;;;;;;5054836;28;20684;-47
2022/12/24 00:49:02;;;;;;;24.80;3.70;;;10.40;99.90;;;;;;5053689;28;20173;-47
2022/12/24 00:51:28;;;;;;;18.65;3.65;;;10.40;99.90;;;;;;5054890;28;20163;-45
2022/12/24 00:53:53;;;;;;;25.30;4.70;;;10.40;99.90;;;;;;5055261;28;20178;-47
2022/12/24 00:56:19;;;;;;;23.15;4.20;;;10.40;99.90;;;;;;5054766;28;20213;-44
2022/12/24 00:58:45;;;;;;;23.30;3.78;;;10.40;99.90;;;;;;5054870;28;20211;-43
2022/12/24 01:01:11;;;;;;;17.75;3.85;;;10.50;99.90;;;;;;5054842;28;20250;-44
2022/12/24 01:03:37;;;;;;;19.80;3.70;;;10.40;99.90;;;;;;5054957;28;20558;-44
2022/12/24 01:06:03;;;;;;;21.65;3.60;;;10.50;99.90;;;;;;5054599;28;20167;-44
2022/12/24 01:08:29;;;;;;;28.00;4.95;;;10.40;99.90;;;;;;5054534;28;20523;-44
2022/12/24 01:10:56;;;;;;;14.75;3.33;;;10.50;99.90;;;;;;5054477;28;20290;-45
2022/12/24 01:13:22;;;;;;;20.67;4.53;;;10.50;99.90;;;;;;5054854;28;20626;-44
2022/12/24 01:15:47;;;;;;;32.50;4.97;;;10.50;99.90;;;;;;5054403;28;20202;-44
2022/12/24 01:18:13;;;;;;;10.02;3.20;;;10.40;99.90;;;;;;5054357;28;20171;-44
2022/12/24 01:20:39;;;;;;;12.85;3.13;;;10.50;99.90;;;;;;5053333;28;20168;-44
2022/12/24 01:23:04;;;;;;;18.65;3.33;;;10.50;99.90;;;;;;5054272;28;20170;-43
2022/12/24 01:25:30;;;;;;;10.48;2.92;;;10.60;99.90;;;;;;5054315;28;20178;-44
2022/12/24 01:27:55;;;;;;;15.00;3.78;;;10.50;99.90;;;;;;5054330;28;20170;-45
2022/12/24 01:30:21;;;;;;;11.68;2.97;;;10.50;99.90;;;;;;5054505;28;20531;-44
2022/12/24 01:32:46;;;;;;;15.48;4.05;;;10.50;99.90;;;;;;5054177;28;20174;-44
2022/12/24 01:35:12;;;;;;;13.85;3.38;;;10.50;99.90;;;;;;5054143;28;20236;-43
2022/12/24 01:37:38;;;;;;;18.10;3.28;;;10.50;99.90;;;;;;5053985;28;20202;-44
2022/12/24 01:45:36;;;;;;;12.75;3.13;;;10.40;99.90;;;;;;5053904;28;20169;-44
2022/12/24 01:48:02;;;;;;;11.05;3.00;;;10.40;99.90;;;;;;5053886;28;20162;-44
2022/12/24 01:50:28;;;;;;;18.70;3.50;;;10.40;99.90;;;;;;5054048;28;20228;-44
2022/12/24 01:52:53;;;;;;;21.80;4.90;;;10.40;99.90;;;;;;5054018;28;20162;-44
2022/12/24 01:55:19;;;;;;;17.95;3.70;;;10.40;99.90;;;;;;5054107;28;20243;-44
2022/12/24 01:57:55;;;;;;;20.80;3.97;;;10.30;99.90;;;;;;5053630;28;20206;-44
2022/12/24 02:00:21;;;;;;;13.88;2.72;;;13.40;99.90;;;;;;5054115;28;20626;-44
2022/12/24 02:02:49;;;;;;;17.95;3.60;;;10.40;99.90;;;;;;5053471;28;20230;-44
2022/12/24 02:05:29;;;;;;;15.13;3.50;;;10.40;99.90;;;;;;5053607;28;20167;-46
2022/12/24 02:07:56;;;;;;;21.20;4.03;;;10.30;99.90;;;;;;5053554;28;20170;-44
2022/12/24 02:10:21;;;;;;;14.10;4.55;;;10.30;99.90;;;;;;5053253;28;20163;-48
2022/12/24 02:12:48;;;;;;;21.75;4.35;;;10.30;99.90;;;;;;5053560;28;20182;-45
2022/12/24 02:15:17;;;;;;;19.42;3.50;;;10.20;99.90;;;;;;5053633;28;20205;-47
2022/12/24 02:18:09;;;;;;;26.42;3.80;;;10.30;99.90;;;;;;5053062;28;20207;-47
2022/12/24 02:21:09;;;;;;;26.48;4.78;;;10.20;99.90;;;;;;5053511;28;20629;-44
2022/12/24 02:24:02;;;;;;;16.05;4.15;;;10.20;99.90;;;;;;5053323;28;20623;-45
2022/12/24 02:26:47;;;;;;;25.83;4.38;;;10.20;99.90;;;;;;5053178;28;20194;-48
2022/12/24 02:29:44;;;;;;;22.02;3.75;;;10.20;99.90;;;;;;5053286;28;20205;-45
2022/12/24 02:32:21;;;;;;;18.20;3.65;;;10.20;99.90;;;;;;5052944;28;20163;-49
2022/12/24 02:34:55;;;;;;;23.42;4.63;;;10.20;99.90;;;;;;5053131;28;20253;-43
2022/12/24 02:37:40;;;;;;;21.83;3.72;;;10.20;99.90;;;;;;5053416;28;20290;-49
2022/12/24 02:40:22;;;;;;;21.50;3.85;;;10.20;99.90;;;;;;5053002;28;20170;-47
2022/12/24 02:42:54;;;;;;;32.30;4.50;;;10.30;99.90;;;;;;5052937;28;20169;-44
2022/12/24 02:45:26;;;;;;;24.67;3.75;;;10.30;99.90;;;;;;5053240;28;20233;-44
2022/12/24 02:47:53;;;;;;;31.88;4.53;;;10.30;99.90;;;;;;5053128;28;20638;-44
2022/12/24 02:50:19;;;;;;;19.15;3.47;;;10.40;99.90;;;;;;5053141;28;20181;-44
2022/12/24 02:52:46;;;;;;;22.00;3.67;;;10.40;99.90;;;;;;5052889;28;20179;-45
2022/12/24 02:55:22;;;;;;;16.98;3.60;;;10.40;99.90;;;;;;5052652;28;20640;-44
2022/12/24 02:58:12;;;;;;;21.73;4.13;;;10.40;99.90;;;;;;5052430;28;20256;-44
2022/12/24 03:00:56;;;;;;;18.58;3.80;;;10.40;99.90;;;;;;5052545;28;20167;-44
2022/12/24 03:04:11;;;;;;;19.02;4.28;;;10.40;99.90;;;;;;5052610;28;20186;-44
2022/12/24 03:06:39;;;;;;;10.05;2.33;;;10.50;99.90;;;;;;5042862;28;20732;-44
2022/12/24 03:09:12;;;;;;;7.70;2.53;;;10.50;99.90;;;;;;5052391;28;20216;-44
2022/12/24 03:11:43;;;;;;;11.48;3.10;;;10.50;99.90;;;;;;5052300;28;20171;-45
2022/12/24 03:14:09;;;;;;;14.10;3.20;;;10.60;99.90;;;;;;5052304;28;20188;-47
2022/12/24 03:16:35;;;;;;;13.50;3.80;;;10.60;99.90;;;;;;5052164;28;20292;-45
2022/12/24 03:19:01;;;;;;;15.85;3.10;;;10.50;99.90;;;;;;5052218;28;20212;-45
2022/12/24 03:21:34;;;;;;;11.38;2.63;;;10.50;99.90;;;;;;5050875;28;20614;-44
2022/12/24 03:24:00;;;;;;;10.48;2.33;;;8.40;99.90;;;;;;5052332;28;20250;-44
2022/12/24 03:26:28;;;;;;;5.25;2.15;;;10.40;99.90;;;;;;5052148;28;20626;-44
2022/12/24 03:28:54;;;;;;;11.30;2.45;;;10.40;99.90;;;;;;5052033;28;20170;-44
2022/12/24 03:31:20;;;;;;;9.00;2.50;;;10.40;99.90;;;;;;5052748;28;20216;-44
2022/12/24 03:33:47;;;;;;;10.15;2.60;;;10.30;99.90;;;;;;5051991;28;20177;-44
2022/12/24 03:36:13;;;;;;;7.80;2.60;;;10.40;99.90;;;;;;5051833;28;20186;-44
2022/12/24 03:38:38;;;;;;;10.93;2.45;;;10.30;99.90;;;;;;5051950;28;20170;-43
2022/12/24 03:41:04;;;;;;;10.23;2.70;;;10.30;99.90;;;;;;5052057;28;20531;-44
2022/12/24 03:43:30;;;;;;;6.50;2.28;;;10.30;99.90;;;;;;5052086;28;20178;-44
2022/12/24 03:45:55;;;;;;;9.25;2.13;;;10.20;99.90;;;;;;5051783;28;20559;-43
2022/12/24 03:48:21;;;;;;;9.73;1.67;;;10.30;99.90;;;;;;5052349;28;20182;-44
2022/12/24 03:50:47;;;;;;;11.18;2.50;;;10.20;99.90;;;;;;5051707;28;20163;-44
2022/12/24 03:53:12;;;;;;;10.20;2.25;;;10.20;99.90;;;;;;5051855;28;20177;-44
2022/12/24 03:55:38;;;;;;;6.00;1.67;;;10.20;99.90;;;;;;5051639;28;20623;-44
2022/12/24 03:58:04;;;;;;;11.30;2.10;;;10.10;99.90;;;;;;5051429;28;20276;-44
2022/12/24 04:00:29;;;;;;;8.30;1.88;;;10.10;99.90;;;;;;5051436;28;20202;-44
2022/12/24 04:02:55;;;;;;;8.57;1.90;;;10.10;99.90;;;;;;5049941;28;20222;-44
2022/12/24 04:05:21;;;;;;;10.35;1.92;;;10.10;99.90;;;;;;5051748;28;20169;-44
2022/12/24 04:07:47;;;;;;;16.25;2.70;;;10.00;99.90;;;;;;5051410;28;20178;-44
2022/12/24 04:10:14;;;;;;;7.07;1.80;;;10.00;99.90;;;;;;5051781;28;20627;-46
2022/12/24 04:12:39;;;;;;;10.57;2.05;;;10.00;99.90;;;;;;5051541;28;20181;-44
2022/12/24 04:15:05;;;;;;;8.38;1.73;;;10.10;99.90;;;;;;5052028;28;20627;-44
2022/12/24 04:17:32;;;;;;;9.65;2.25;;;10.10;99.90;;;;;;5055466;28;20229;-44
2022/12/24 04:19:57;;;;;;;10.20;2.15;;;10.10;99.90;;;;;;5055820;28;20167;-43
2022/12/24 04:22:23;;;;;;;7.90;2.08;;;10.10;99.90;;;;;;5054585;28;20197;-44
2022/12/24 04:24:48;;;;;;;6.32;1.58;;;10.10;99.90;;;;;;5055838;28;20292;-43
2022/12/24 04:27:15;;;;;;;10.07;2.22;;;10.10;99.90;;;;;;5055382;28;20532;-44
2022/12/24 04:29:40;;;;;;;13.57;3.03;;;10.00;99.90;;;;;;5055417;28;20186;-44
2022/12/24 04:32:06;;;;;;;8.82;1.73;;;10.10;99.90;;;;;;5055309;28;20563;-44
2022/12/24 04:34:31;;;;;;;9.32;2.10;;;10.00;99.90;;;;;;5055324;28;20169;-44
2022/12/24 04:36:57;;;;;;;13.07;2.35;;;10.00;99.90;;;;;;5054305;28;20205;-44
2022/12/24 04:39:22;;;;;;;8.65;2.38;;;9.90;99.90;;;;;;5055235;28;20206;-44
2022/12/24 04:41:48;;;;;;;9.88;2.25;;;10.00;99.90;;;;;;5055430;28;20221;-45
2022/12/24 04:44:13;;;;;;;11.43;2.80;;;10.00;99.90;;;;;;5055091;28;20174;-44
2022/12/24 04:46:41;;;;;;;5.45;2.20;;;9.90;99.90;;;;;;5054330;28;20224;-44
2022/12/24 04:49:07;;;;;;;10.23;2.42;;;9.90;99.90;;;;;;5055218;28;20171;-44
2022/12/24 04:51:33;;;;;;;10.38;2.25;;;9.90;99.90;;;;;;5054942;28;20627;-44
2022/12/24 04:53:58;;;;;;;8.57;2.15;;;9.80;99.90;;;;;;5054891;28;20257;-44
2022/12/24 04:56:26;;;;;;;8.63;2.10;;;9.80;99.90;;;;;;5054774;28;20202;-43
2022/12/24 04:58:52;;;;;;;10.10;2.45;;;9.90;99.90;;;;;;5055120;28;20166;-44
2022/12/24 05:01:22;;;;;;;9.98;2.17;;;9.90;99.90;;;;;;5055034;28;20280;-44
2022/12/24 05:03:48;;;;;;;9.55;2.40;;;9.90;99.90;;;;;;5054687;28;20213;-46
2022/12/24 05:06:17;;;;;;;15.32;2.65;;;9.90;99.90;;;;;;5054642;28;20201;-44
2022/12/24 05:08:43;;;;;;;5.88;2.17;;;9.90;99.90;;;;;;5054615;28;20231;-44
2022/12/24 05:11:10;;;;;;;10.55;2.50;;;10.00;99.90;;;;;;5054571;28;20175;-44
2022/12/24 05:13:35;;;;;;;11.23;2.25;;;10.00;99.90;;;;;;5054567;28;20300;-44
2022/12/24 05:16:01;;;;;;;22.08;3.67;;;10.00;99.90;;;;;;5053196;28;20212;-44
2022/12/24 05:18:26;;;;;;;17.38;2.97;;;10.00;99.90;;;;;;5054546;28;20224;-44
2022/12/24 05:20:52;;;;;;;18.33;3.58;;;10.00;99.90;;;;;;5054219;28;20575;-44
2022/12/24 05:26:22;;;;;;;9.25;2.40;;;10.00;99.90;;;;;;5054325;28;20174;-43
2022/12/24 05:28:53;;;;;;;11.32;2.85;;;10.00;99.90;;;;;;5054085;28;20173;-44
2022/12/24 05:31:19;;;;;;;13.18;2.85;;;10.00;99.90;;;;;;5054063;28;20174;-44
2022/12/24 05:33:45;;;;;;;10.70;3.38;;;10.00;99.90;;;;;;5054097;28;20179;-44
2022/12/24 05:36:11;;;;;;;11.73;3.35;;;10.10;99.90;;;;;;5054257;28;20626;-44
2022/12/24 05:38:37;;;;;;;13.80;2.90;;;10.10;99.90;;;;;;5054089;28;20167;-44
2022/12/24 05:41:02;;;;;;;15.73;4.20;;;10.10;99.90;;;;;;5054127;28;20174;-44
2022/12/24 05:43:28;;;;;;;7.57;2.88;;;10.10;99.90;;;;;;5054226;28;20167;-44
2022/12/24 05:46:01;;;;;;;10.63;3.17;;;10.10;99.90;;;;;;5053957;28;20159;-47
2022/12/24 05:48:27;;;;;;;16.13;3.17;;;10.10;99.90;;;;;;5053829;28;20167;-44
2022/12/24 05:50:53;;;;;;;16.90;3.15;;;10.10;99.90;;;;;;5053523;28;20159;-44
2022/12/24 05:53:19;;;;;;;14.75;3.72;;;10.10;99.90;;;;;;5054277;28;20173;-47
2022/12/24 05:55:44;;;;;;;18.17;3.85;;;10.10;99.90;;;;;;5053754;28;20167;-49
2022/12/24 05:58:10;;;;;;;12.80;3.58;;;10.10;99.90;;;;;;5053696;28;20206;-48
2022/12/24 06:00:35;;;;;;;14.00;3.30;;;10.10;99.90;;;;;;5053723;28;20174;-44
2022/12/24 06:03:01;;;;;;;13.55;3.80;;;10.10;99.90;;;;;;5053595;28;20271;-48
2022/12/24 06:05:27;;;;;;;11.57;3.25;;;10.10;99.90;;;;;;5053544;28;20167;-46
2022/12/24 06:07:52;;;;;;;16.58;4.30;;;10.10;99.90;;;;;;5053901;28;20241;-45
2022/12/24 06:10:18;;;;;;;16.58;3.40;;;10.10;99.90;;;;;;5053958;28;20159;-49
2022/12/24 06:12:44;;;;;;;14.65;3.60;;;10.10;99.90;;;;;;5053370;28;20170;-47
2022/12/24 06:15:10;;;;;;;13.98;3.28;;;10.20;99.90;;;;;;5053483;28;20253;-49
2022/12/24 06:17:36;;;;;;;20.20;4.75;;;10.10;99.90;;;;;;5053335;28;20229;-49
2022/12/24 06:20:01;;;;;;;15.82;3.45;;;10.10;99.90;;;;;;5053399;28;20631;-47
2022/12/24 06:22:27;;;;;;;18.48;3.92;;;10.10;99.90;;;;;;5053445;28;20296;-47
2022/12/24 06:24:52;;;;;;;19.45;3.67;;;10.10;99.90;;;;;;5053248;28;20642;-47
2022/12/24 06:27:18;;;;;;;17.88;4.88;;;10.00;99.90;;;;;;5053528;28;20178;-49
2022/12/24 06:29:43;;;;;;;20.17;3.85;;;10.10;99.90;;;;;;5053119;28;20171;-48
2022/12/24 06:32:09;;;;;;;19.77;4.25;;;10.00;99.90;;;;;;5053145;28;20249;-49
2022/12/24 06:34:34;;;;;;;20.58;4.60;;;10.00;99.90;;;;;;5053048;28;20195;-48
2022/12/24 06:37:00;;;;;;;14.73;3.72;;;10.00;99.90;;;;;;5052920;28;20245;-48
2022/12/24 06:39:26;;;;;;;23.52;4.38;;;10.00;99.90;;;;;;5052205;28;20220;-49
2022/12/24 06:41:52;;;;;;;19.80;4.18;;;10.00;99.90;;;;;;5053288;28;20221;-45
2022/12/24 06:44:17;;;;;;;16.17;3.60;;;10.10;99.90;;;;;;5053297;28;20159;-49
2022/12/24 06:46:43;;;;;;;26.10;4.22;;;10.10;99.90;;;;;;5052804;28;20171;-47
2022/12/24 06:49:08;;;;;;;24.20;4.85;;;10.10;99.90;;;;;;5052753;28;20578;-47
2022/12/24 06:51:34;;;;;;;25.70;4.18;;;10.00;99.90;;;;;;5052673;28;20716;-46
2022/12/24 06:53:59;;;;;;;20.63;3.83;;;10.00;99.90;;;;;;5052667;28;20162;-47
2022/12/24 06:56:25;;;;;;;20.48;3.40;;;10.00;99.90;;;;;;5052425;28;20201;-50
2022/12/24 06:58:51;;;;;;;20.83;4.10;;;10.00;99.90;;;;;;5052961;28;20166;-44
2022/12/24 07:01:18;;;;;;;22.85;4.22;;;10.00;99.90;;;;;;5052580;28;20702;-43
2022/12/24 07:03:44;;;;;;;21.23;3.72;;;10.10;99.90;;;;;;5052573;28;20185;-44
2022/12/24 07:06:24;;;;;;;26.33;5.65;;;10.10;99.90;;;;;;5052473;28;20631;-44
2022/12/24 07:08:50;;;;;;;16.02;3.83;;;10.20;99.90;;;;;;5052784;28;20595;-44
2022/12/24 07:11:16;;;;;;;14.55;3.13;;;10.10;99.90;;;;;;5052368;28;20237;-44
2022/12/24 07:13:42;;;;;;;21.27;3.80;;;10.20;99.90;;;;;;5052508;28;20718;-44
2022/12/24 07:16:07;;;;;;;22.00;4.18;;;10.20;99.90;;;;;;5052176;28;20162;-44
2022/12/24 07:18:33;;;;;;;32.30;4.47;;;10.10;99.90;;;;;;5052194;28;20257;-44
2022/12/24 07:20:59;;;;;;;18.38;4.75;;;10.20;99.90;;;;;;5052219;28;20220;-44
2022/12/24 07:23:25;;;;;;;20.48;4.20;;;10.10;99.90;;;;;;5052392;28;20543;-45
2022/12/24 07:25:51;;;;;;;23.23;4.32;;;10.10;99.90;;;;;;5052726;28;20214;-44
2022/12/24 07:28:16;;;;;;;21.85;4.47;;;10.20;99.90;;;;;;5051919;28;20181;-44
2022/12/24 07:30:42;;;;;;;17.80;3.90;;;10.10;99.90;;;;;;5050599;28;20224;-44
2022/12/24 07:33:08;;;;;;;17.20;4.05;;;10.10;99.90;;;;;;5051680;28;20167;-44
2022/12/24 07:35:34;;;;;;;22.20;4.95;;;10.10;99.90;;;;;;5052081;28;20664;-44
2022/12/24 07:38:01;;;;;;;23.50;4.97;;;10.10;99.90;;;;;;5051813;28;20202;-43
2022/12/24 07:40:26;;;;;;;27.55;4.53;;;10.10;99.90;;;;;;5051993;28;20171;-43
2022/12/24 07:42:52;;;;;;;15.98;4.05;;;10.10;99.90;;;;;;5052187;28;20225;-43
2022/12/24 07:45:17;;;;;;;30.02;4.60;;;10.10;99.90;;;;;;5052084;28;20171;-44
2022/12/24 07:47:43;;;;;;;20.38;4.15;;;10.10;99.90;;;;;;5051751;28;20554;-43
2022/12/24 07:50:09;;;;;;;18.90;3.35;;;10.00;99.90;;;;;;5051514;28;20179;-44
2022/12/24 07:52:34;;;;;;;21.08;4.15;;;10.00;99.90;;;;;;5051946;28;20179;-44
2022/12/24 07:55:00;;;;;;;21.15;4.53;;;10.00;99.90;;;;;;5051872;28;20166;-43
2022/12/24 07:57:25;;;;;;;20.42;4.25;;;10.10;99.90;;;;;;5051354;28;20206;-44
2022/12/24 07:59:51;;;;;;;22.23;4.68;;;10.00;99.90;;;;;;5051962;28;20194;-43
2022/12/24 08:02:16;;;;;;;23.75;4.85;;;10.10;99.90;;;;;;5051255;28;20214;-43
2022/12/24 08:04:42;;;;;;;23.27;4.13;;;10.10;99.90;;;;;;5051070;28;20166;-44
2022/12/24 08:07:08;;;;;;;30.48;5.22;;;10.10;99.90;;;;;;5051131;28;20171;-45
2022/12/24 08:09:34;;;;;;;23.50;5.03;;;10.20;99.90;;;;;;5051499;28;20166;-44
2022/12/24 08:12:01;;;;;;;21.08;5.13;;;10.20;99.90;;;;;;5051547;28;20178;-43
2022/12/24 08:14:28;;;;;;;14.20;3.80;;;10.20;99.90;;;;;;5050966;28;20162;-43
2022/12/24 08:16:54;;;;;;;14.32;3.75;;;10.30;99.90;;;;;;5050688;28;20260;-44
2022/12/24 08:19:19;;;;;;;24.38;4.78;;;10.30;99.90;;;;;;5051729;28;20574;-43
2022/12/24 08:21:45;;;;;;;22.92;4.97;;;10.30;99.90;;;;;;5051335;28;20644;-45
2022/12/24 08:24:10;;;;;;;19.55;3.95;;;10.30;99.90;;;;;;5051203;28;20167;-43
2022/12/24 08:26:36;;;;;;;26.73;5.03;;;10.30;99.90;;;;;;5051048;28;20292;-44
2022/12/24 08:29:03;;;;;;;19.42;4.57;;;10.30;99.90;;;;;;5051240;28;20256;-44
2022/12/24 08:31:29;;;;;;;24.52;4.25;;;10.30;99.90;;;;;;5051317;28;20178;-44
2022/12/24 08:33:55;;;;;;;19.75;3.97;;;10.40;99.90;;;;;;5051224;28;20167;-43
2022/12/24 08:36:21;;;;;;;20.00;4.82;;;10.40;99.90;;;;;;5051164;28;20194;-44
2022/12/24 08:38:46;;;;;;;23.10;5.13;;;10.50;99.90;;;;;;5051148;28;20174;-44
2022/12/24 08:41:12;;;;;;;21.77;3.55;;;10.50;99.90;;;;;;5051236;28;20194;-43
2022/12/24 08:43:37;;;;;;;16.33;3.90;;;10.50;99.90;;;;;;5051133;28;20179;-44
2022/12/24 08:46:04;;;;;;;25.45;4.90;;;10.60;99.90;;;;;;5050940;28;20166;-44
2022/12/24 08:48:31;;;;;;;16.48;4.10;;;10.50;99.90;;;;;;5050964;28;20163;-43
2022/12/24 08:50:57;;;;;;;21.15;4.57;;;10.50;99.90;;;;;;5050789;28;20178;-43
2022/12/24 08:53:22;;;;;;;25.48;3.95;;;10.50;99.90;;;;;;5050807;28;20163;-43
2022/12/24 08:55:48;;;;;;;20.67;4.10;;;10.50;99.90;;;;;;5051308;28;20174;-44
2022/12/24 08:58:13;;;;;;;22.50;5.05;;;10.50;99.90;;;;;;5050986;28;20213;-44
2022/12/24 09:00:39;;;;;;;18.08;4.07;;;10.50;99.90;;;;;;5051348;28;20163;-44
2022/12/24 09:03:04;;;;;;;16.98;4.07;;;10.50;99.90;;;;;;5052734;28;20225;-44
2022/12/24 09:05:30;;;;;;;17.75;4.20;;;10.50;99.90;;;;;;5054733;28;20209;-44
2022/12/24 09:07:56;;;;;;;19.90;4.38;;;10.50;99.90;;;;;;5053405;28;20525;-44
2022/12/24 09:10:22;;;;;;;22.27;5.28;;;10.50;99.90;;;;;;5054543;28;20634;-44
2022/12/24 09:12:48;;;;;;;20.63;4.47;;;10.50;99.90;;;;;;5055001;28;20186;-44
2022/12/24 09:15:13;;;;;;;26.85;4.78;;;10.50;99.90;;;;;;5054707;28;20171;-44
2022/12/24 09:17:39;;;;;;;21.08;4.97;;;10.50;99.90;;;;;;5054147;28;20206;-44
2022/12/24 09:20:06;;;;;;;21.40;5.03;;;10.60;99.90;;;;;;5054271;28;20162;-44
2022/12/24 09:22:37;;;;;;;17.10;4.63;;;10.50;99.90;;;;;;5053975;28;20669;-44
2022/12/24 09:25:05;;;;;;;25.02;4.70;;;10.50;99.90;;;;;;5052771;28;20175;-44
2022/12/24 09:27:30;;;;;;;27.00;4.82;;;10.50;99.90;;;;;;5054299;28;20179;-44
2022/12/24 09:29:56;;;;;;;17.75;5.10;;;10.50;99.90;;;;;;5054127;28;20174;-44
2022/12/24 09:32:22;;;;;;;25.67;4.95;;;10.50;99.90;;;;;;5054459;28;20257;-44
2022/12/24 09:34:47;;;;;;;31.00;5.57;;;10.60;99.90;;;;;;5053973;28;20178;-49
2022/12/24 09:37:13;;;;;;;22.15;4.40;;;10.60;99.90;;;;;;5053975;28;20238;-52
2022/12/24 09:39:38;;;;;;;20.10;4.22;;;10.60;99.90;;;;;;5054100;28;20162;-49
2022/12/24 09:42:37;;;;;;;23.50;5.50;;;10.60;99.90;;;;;;5053920;28;20221;-45
2022/12/24 09:45:16;;;;;;;22.02;4.57;;;10.60;99.90;;;;;;5053504;28;20175;-45
2022/12/24 09:47:53;;;;;;;22.65;3.60;;;10.70;99.90;;;;;;5053846;28;20531;-45
2022/12/24 09:50:27;;;;;;;21.05;4.82;;;10.70;99.90;;;;;;5051069;28;20234;-48
2022/12/24 09:52:55;;;;;;;17.13;5.05;;;10.80;99.90;;;;;;5053415;28;20167;-46
2022/12/24 09:55:35;;;;;;;25.13;5.28;;;10.80;99.90;;;;;;5054156;28;20163;-47
2022/12/24 09:58:03;;;;;;;26.73;5.95;;;10.80;99.90;;;;;;5053753;28;20752;-45
2022/12/24 10:00:35;;;;;;;20.73;4.47;;;10.80;99.90;;;;;;5053542;28;20171;-45
2022/12/24 10:03:05;;;;;;;14.35;3.88;;;10.80;99.90;;;;;;5053080;28;20261;-45
2022/12/24 10:05:39;;;;;;;23.67;4.53;;;10.80;99.90;;;;;;5053610;28;20166;-45
2022/12/24 10:08:33;;;;;;;26.60;5.60;;;10.80;99.90;;;;;;5053625;28;20228;-48
2022/12/24 10:11:13;;;;;;;24.40;5.82;;;10.80;99.90;;;;;;5044137;28;20665;-46
2022/12/24 10:13:49;;;;;;;21.90;4.85;;;10.90;99.90;;;;;;5053326;28;20174;-47
2022/12/24 10:16:27;;;;;;;26.35;4.90;;;10.90;99.90;;;;;;5053349;28;20162;-47
2022/12/24 10:19:08;;;;;;;21.88;4.60;;;10.90;99.90;;;;;;5053328;28;20166;-45
2022/12/24 10:21:52;;;;;;;27.38;4.60;;;11.00;99.90;;;;;;5053290;28;20162;-45
2022/12/24 10:24:30;;;;;;;28.20;5.22;;;11.00;99.90;;;;;;5053376;28;20159;-44
2022/12/24 10:27:03;;;;;;;30.38;5.45;;;11.00;99.90;;;;;;5052006;28;20175;-44
2022/12/24 10:29:35;;;;;;;21.30;4.22;;;11.00;99.90;;;;;;5053221;28;20171;-48
2022/12/24 10:32:07;;;;;;;15.10;4.10;;;11.00;99.90;;;;;;5053008;28;20175;-45
2022/12/24 10:34:39;;;;;;;23.05;4.57;;;11.10;99.90;;;;;;5052958;28;20654;-46
2022/12/24 10:37:05;;;;;;;28.08;5.43;;;11.10;99.90;;;;;;5052658;28;20203;-44
2022/12/24 10:39:31;;;;;;;23.42;4.68;;;11.10;99.90;;;;;;5053090;28;20203;-48
2022/12/24 10:41:59;;;;;;;18.55;4.22;;;11.10;99.90;;;;;;5052836;28;20549;-46
2022/12/24 10:44:30;;;;;;;34.45;4.68;;;11.10;99.90;;;;;;5052836;28;20579;-45
2022/12/24 10:46:56;;;;;;;15.75;4.03;;;11.10;99.90;;;;;;5052589;28;20265;-45
2022/12/24 10:49:35;;;;;;;27.80;5.72;;;11.10;99.90;;;;;;5051065;28;20489;-46
2022/12/24 10:52:09;;;;;;;25.30;4.25;;;11.10;99.90;;;;;;5051394;28;20180;-44
2022/12/24 10:54:38;;;;;;;27.25;5.45;;;11.10;99.90;;;;;;5030845;28;20589;-45
2022/12/24 10:57:05;;;;;;;20.95;4.57;;;11.10;99.90;;;;;;5030772;28;20290;-45
2022/12/24 10:59:41;;;;;;;21.65;5.05;;;11.10;99.90;;;;;;5030867;28;20167;-44
2022/12/24 11:02:33;;;;;;;22.58;4.95;;;11.10;99.90;;;;;;5030832;28;20235;-45
2022/12/24 11:05:00;;;;;;;16.75;4.55;;;11.10;99.90;;;;;;5030862;28;20167;-44
2022/12/24 11:07:28;;;;;;;23.75;4.90;;;11.10;99.90;;;;;;5030634;28;20208;-43
2022/12/24 11:09:58;;;;;;;23.40;5.07;;;11.10;99.90;;;;;;5030435;28;20186;-44
2022/12/24 11:12:33;;;;;;;26.27;4.68;;;11.30;99.90;;;;;;5030729;28;20237;-44
2022/12/24 11:15:06;;;;;;;26.55;5.03;;;11.40;99.90;;;;;;5030808;28;20178;-46
2022/12/24 11:17:32;;;;;;;18.50;4.40;;;11.30;99.90;;;;;;5030683;28;20264;-44
2022/12/24 11:19:58;;;;;;;25.00;4.78;;;11.30;99.90;;;;;;5035816;28;20179;-43
2022/12/24 11:22:27;;;;;;;14.20;4.00;;;11.40;99.90;;;;;;5045746;28;20185;-44
2022/12/24 11:25:01;;;;;;;24.38;4.95;;;11.50;99.90;;;;;;5049550;28;20167;-45
2022/12/24 11:27:41;;;;;;;28.05;5.25;;;11.50;99.90;;;;;;5049801;28;20174;-44
2022/12/24 11:30:16;;;;;;;22.25;4.80;;;11.50;99.90;;;;;;5050468;28;20167;-46
2022/12/24 11:32:41;;;;;;;29.42;4.90;;;11.50;99.90;;;;;;5050135;28;20178;-46
2022/12/24 11:35:14;;;;;;;24.95;5.55;;;11.50;99.90;;;;;;5050074;28;20514;-44
2022/12/24 11:37:39;;;;;;;19.15;4.65;;;11.60;99.90;;;;;;5049749;28;20255;-46
2022/12/24 11:40:20;;;;;;;31.60;4.88;;;11.60;99.90;;;;;;5049742;28;20170;-46
2022/12/24 11:42:46;;;;;;;33.05;4.97;;;11.60;99.90;;;;;;5050288;28;20634;-46
2022/12/24 11:45:26;;;;;;;28.67;5.07;;;11.60;99.90;;;;;;5049757;28;20231;-45
2022/12/24 11:47:53;;;;;;;24.48;4.63;;;13.70;99.90;;;;;;5049723;28;20177;-44
2022/12/24 11:50:20;;;;;;;17.08;4.38;;;11.70;99.90;;;;;;5049819;28;20193;-46
2022/12/24 11:53:03;;;;;;;22.63;5.22;;;11.80;99.90;;;;;;5049553;28;20173;-44
2022/12/24 11:55:48;;;;;;;22.70;4.30;;;11.80;99.90;;;;;;5049675;28;20634;-45
2022/12/24 11:58:31;;;;;;;15.15;4.10;;;11.80;99.90;;;;;;5049849;28;20288;-46
2022/12/24 12:01:18;;;;;;;17.10;4.25;;;11.70;99.90;;;;;;5049396;28;20206;-47
2022/12/24 12:03:53;;;;;;;24.63;5.38;;;11.70;99.90;;;;;;5049795;28;20175;-48
2022/12/24 12:06:36;;;;;;;20.10;4.25;;;11.70;99.90;;;;;;5049937;28;20646;-44
2022/12/24 12:09:09;;;;;;;16.60;5.82;;;11.70;99.90;;;;;;5049661;28;20166;-48
2022/12/24 12:11:39;;;;;;;22.92;4.57;;;11.70;99.90;;;;;;5049654;28;20163;-49
2022/12/24 12:14:07;;;;;;;19.30;3.90;;;11.70;99.90;;;;;;5049748;28;20162;-45
2022/12/24 12:16:59;;;;;;;27.60;7.03;;;11.70;99.90;;;;;;5049616;28;20777;-44
2022/12/24 12:19:27;;;;;;;27.35;5.05;;;11.70;99.90;;;;;;5049639;28;20228;-44
2022/12/24 12:21:53;;;;;;;29.38;5.57;;;11.60;99.90;;;;;;5049565;28;20194;-44
2022/12/24 12:24:33;;;;;;;34.17;4.07;;;11.60;99.90;;;;;;5049876;28;20575;-45
2022/12/24 12:27:31;;;;;;;23.60;4.72;;;11.60;99.90;;;;;;5049845;28;20580;-46
2022/12/24 12:30:02;;;;;;;22.95;4.72;;;11.50;99.90;;;;;;5048946;28;20186;-44
2022/12/24 12:32:55;;;;;;;15.60;3.85;;;14.40;99.90;;;;;;5048281;28;20182;-44
2022/12/24 12:35:38;;;;;;;28.90;4.88;;;11.50;99.90;;;;;;5049752;28;20174;-47
2022/12/24 12:38:10;;;;;;;23.88;5.28;;;11.50;99.90;;;;;;5051151;28;20620;-44
2022/12/24 12:40:41;;;;;;;16.92;3.95;;;11.50;99.90;;;;;;5053082;28;20159;-44
2022/12/24 12:43:35;;;;;;;29.90;4.22;;;11.50;99.90;;;;;;5053139;28;20313;-44
2022/12/24 12:46:13;;;;;;;19.08;4.15;;;11.60;99.90;;;;;;5052445;28;20270;-43
2022/12/24 12:48:57;;;;;;;20.60;5.28;;;11.60;99.90;;;;;;5052792;28;20253;-45
2022/12/24 12:51:37;;;;;;;24.15;4.80;;;11.70;99.90;;;;;;5053121;28;20170;-44
2022/12/24 12:54:12;;;;;;;20.35;4.53;;;11.90;99.90;;;;;;5052809;28;20171;-44
2022/12/24 12:56:45;;;;;;;16.95;4.72;;;12.10;99.90;;;;;;5052790;28;20201;-45